sensor_id;sensor_type;location;lat;lon;timestamp;temperature;humidity
56322;DHT22;42227;6.376;-10.782;2023-04-15T00:02:26;29.40;99.90
56322;DHT22;42227;6.376;-10.782;2023-04-15T00:04:55;29.40;99.90
56322;DHT22;42227;6.376;-10.782;2023-04-15T00:07:23;29.50;99.90
56322;DHT22;42227;6.376;-10.782;2023-04-15T00:09:51;29.70;99.90
56322;DHT22;42227;6.376;-10.782;2023-04-15T00:12:20;29.50;99.90
56322;DHT22;42227;6.376;-10.782;2023-04-15T00:14:49;29.50;99.90
56322;DHT22;42227;6.376;-10.782;2023-04-15T00:17:17;29.60;99.90
56322;DHT22;42227;6.376;-10.782;2023-04-15T00:19:45;29.70;99.90
56322;DHT22;42227;6.376;-10.782;2023-04-15T00:22:14;29.60;99.90
56322;DHT22;42227;6.376;-10.782;2023-04-15T00:24:42;29.50;99.90
56322;DHT22;42227;6.376;-10.782;2023-04-15T00:27:11;29.40;99.90
56322;DHT22;42227;6.376;-10.782;2023-04-15T00:29:39;29.30;99.90
56322;DHT22;42227;6.376;-10.782;2023-04-15T00:32:07;29.50;99.90
56322;DHT22;42227;6.376;-10.782;2023-04-15T00:34:35;29.40;99.90
56322;DHT22;42227;6.376;-10.782;2023-04-15T00:37:04;29.10;99.90
56322;DHT22;42227;6.376;-10.782;2023-04-15T00:39:32;28.90;99.90
56322;DHT22;42227;6.376;-10.782;2023-04-15T00:42:01;28.90;99.90
56322;DHT22;42227;6.376;-10.782;2023-04-15T00:44:31;29.20;99.90
56322;DHT22;42227;6.376;-10.782;2023-04-15T00:47:00;29.30;99.90
56322;DHT22;42227;6.376;-10.782;2023-04-15T00:49:28;29.50;99.90
56322;DHT22;42227;6.376;-10.782;2023-04-15T00:51:56;29.60;99.90
56322;DHT22;42227;6.376;-10.782;2023-04-15T00:54:25;29.60;99.90
56322;DHT22;42227;6.376;-10.782;2023-04-15T00:56:53;29.60;99.90
56322;DHT22;42227;6.376;-10.782;2023-04-15T00:59:21;29.60;99.90
56322;DHT22;42227;6.376;-10.782;2023-04-15T01:01:49;29.70;99.90
56322;DHT22;42227;6.376;-10.782;2023-04-15T01:04:18;29.70;99.90
56322;DHT22;42227;6.376;-10.782;2023-04-15T01:06:47;29.80;99.90
56322;DHT22;42227;6.376;-10.782;2023-04-15T01:09:15;29.70;99.90
56322;DHT22;42227;6.376;-10.782;2023-04-15T01:11:43;29.60;99.90
56322;DHT22;42227;6.376;-10.782;2023-04-15T01:14:12;29.50;99.90
56322;DHT22;42227;6.376;-10.782;2023-04-15T01:16:41;29.60;99.90
56322;DHT22;42227;6.376;-10.782;2023-04-15T01:19:10;29.60;99.90
56322;DHT22;42227;6.376;-10.782;2023-04-15T01:21:38;29.70;99.90
56322;DHT22;42227;6.376;-10.782;2023-04-15T01:24:09;29.70;99.90
56322;DHT22;42227;6.376;-10.782;2023-04-15T01:26:40;29.50;99.90
56322;DHT22;42227;6.376;-10.782;2023-04-15T01:29:10;29.30;99.90
56322;DHT22;42227;6.376;-10.782;2023-04-15T01:31:39;29.30;99.90
56322;DHT22;42227;6.376;-10.782;2023-04-15T01:34:07;29.30;99.90
56322;DHT22;42227;6.376;-10.782;2023-04-15T01:36:35;29.40;99.90
56322;DHT22;42227;6.376;-10.782;2023-04-15T01:39:03;29.30;99.90
56322;DHT22;42227;6.376;-10.782;2023-04-15T01:41:32;29.20;99.90
56322;DHT22;42227;6.376;-10.782;2023-04-15T01:44:00;29.00;99.90
56322;DHT22;42227;6.376;-10.782;2023-04-15T01:46:28;29.10;99.90
56322;DHT22;42227;6.376;-10.782;2023-04-15T01:48:57;29.20;99.90
56322;DHT22;42227;6.376;-10.782;2023-04-15T01:51:25;29.40;99.90
56322;DHT22;42227;6.376;-10.782;2023-04-15T01:53:53;29.30;99.90
56322;DHT22;42227;6.376;-10.782;2023-04-15T01:56:23;29.20;99.90
56322;DHT22;42227;6.376;-10.782;2023-04-15T01:58:51;29.10;99.90
56322;DHT22;42227;6.376;-10.782;2023-04-15T02:01:20;29.00;99.90
56322;DHT22;42227;6.376;-10.782;2023-04-15T02:03:48;28.90;99.90
56322;DHT22;42227;6.376;-10.782;2023-04-15T02:06:17;28.70;99.90
56322;DHT22;42227;6.376;-10.782;2023-04-15T02:08:45;28.60;99.90
56322;DHT22;42227;6.376;-10.782;2023-04-15T02:11:13;28.60;99.90
56322;DHT22;42227;6.376;-10.782;2023-04-15T02:13:41;28.70;99.90
56322;DHT22;42227;6.376;-10.782;2023-04-15T02:16:16;29.00;99.90
56322;DHT22;42227;6.376;-10.782;2023-04-15T02:18:45;29.00;99.90
56322;DHT22;42227;6.376;-10.782;2023-04-15T02:21:14;29.20;99.90
56322;DHT22;42227;6.376;-10.782;2023-04-15T02:23:42;29.20;99.90
56322;DHT22;42227;6.376;-10.782;2023-04-15T02:26:12;29.10;99.90
56322;DHT22;42227;6.376;-10.782;2023-04-15T02:28:41;29.10;99.90
56322;DHT22;42227;6.376;-10.782;2023-04-15T02:31:09;29.20;99.90
56322;DHT22;42227;6.376;-10.782;2023-04-15T02:33:37;29.30;99.90
56322;DHT22;42227;6.376;-10.782;2023-04-15T02:36:05;29.30;99.90
56322;DHT22;42227;6.376;-10.782;2023-04-15T02:38:34;29.00;99.90
56322;DHT22;42227;6.376;-10.782;2023-04-15T02:41:02;28.80;99.90
56322;DHT22;42227;6.376;-10.782;2023-04-15T02:43:30;28.70;99.90
56322;DHT22;42227;6.376;-10.782;2023-04-15T02:45:59;28.90;99.90
56322;DHT22;42227;6.376;-10.782;2023-04-15T02:48:27;28.80;99.90
56322;DHT22;42227;6.376;-10.782;2023-04-15T02:51:16;28.80;99.90
56322;DHT22;42227;6.376;-10.782;2023-04-15T02:53:46;28.80;99.90
56322;DHT22;42227;6.376;-10.782;2023-04-15T02:56:15;28.70;99.90
56322;DHT22;42227;6.376;-10.782;2023-04-15T02:58:44;28.70;99.90
56322;DHT22;42227;6.376;-10.782;2023-04-15T03:01:12;28.80;99.90
56322;DHT22;42227;6.376;-10.782;2023-04-15T03:03:41;28.90;99.90
56322;DHT22;42227;6.376;-10.782;2023-04-15T03:06:10;29.00;99.90
56322;DHT22;42227;6.376;-10.782;2023-04-15T03:08:40;28.90;99.90
56322;DHT22;42227;6.376;-10.782;2023-04-15T03:11:08;28.90;99.90
56322;DHT22;42227;6.376;-10.782;2023-04-15T03:13:36;28.80;99.90
56322;DHT22;42227;6.376;-10.782;2023-04-15T03:16:11;28.90;99.90
56322;DHT22;42227;6.376;-10.782;2023-04-15T03:18:40;29.10;99.90
56322;DHT22;42227;6.376;-10.782;2023-04-15T03:21:09;29.10;99.90
56322;DHT22;42227;6.376;-10.782;2023-04-15T03:23:38;28.70;99.90
56322;DHT22;42227;6.376;-10.782;2023-04-15T03:26:07;28.50;99.90
56322;DHT22;42227;6.376;-10.782;2023-04-15T03:28:35;28.50;99.90
56322;DHT22;42227;6.376;-10.782;2023-04-15T03:31:03;28.50;99.90
56322;DHT22;42227;6.376;-10.782;2023-04-15T03:33:32;28.80;99.90
56322;DHT22;42227;6.376;-10.782;2023-04-15T03:36:00;28.80;99.90
56322;DHT22;42227;6.376;-10.782;2023-04-15T03:38:28;28.80;99.90
56322;DHT22;42227;6.376;-10.782;2023-04-15T03:40:56;28.60;99.90
56322;DHT22;42227;6.376;-10.782;2023-04-15T03:43:24;28.60;99.90
56322;DHT22;42227;6.376;-10.782;2023-04-15T03:45:53;28.50;99.90
56322;DHT22;42227;6.376;-10.782;2023-04-15T03:48:21;28.50;99.90
56322;DHT22;42227;6.376;-10.782;2023-04-15T03:50:49;28.50;99.90
56322;DHT22;42227;6.376;-10.782;2023-04-15T03:53:17;28.40;99.90
56322;DHT22;42227;6.376;-10.782;2023-04-15T03:55:46;28.40;99.90
56322;DHT22;42227;6.376;-10.782;2023-04-15T03:58:14;28.60;99.90
56322;DHT22;42227;6.376;-10.782;2023-04-15T04:00:42;28.70;99.90
56322;DHT22;42227;6.376;-10.782;2023-04-15T04:03:10;28.70;99.90
56322;DHT22;42227;6.376;-10.782;2023-04-15T04:05:39;28.70;99.90
56322;DHT22;42227;6.376;-10.782;2023-04-15T04:08:07;28.60;99.90
56322;DHT22;42227;6.376;-10.782;2023-04-15T04:10:35;28.50;99.90
56322;DHT22;42227;6.376;-10.782;2023-04-15T04:13:04;28.50;99.90
56322;DHT22;42227;6.376;-10.782;2023-04-15T04:15:32;28.60;99.90
56322;DHT22;42227;6.376;-10.782;2023-04-15T04:18:00;28.70;99.90
56322;DHT22;42227;6.376;-10.782;2023-04-15T04:20:29;28.70;99.90
56322;DHT22;42227;6.376;-10.782;2023-04-15T04:22:57;28.60;99.90
56322;DHT22;42227;6.376;-10.782;2023-04-15T04:25:25;28.60;99.90
56322;DHT22;42227;6.376;-10.782;2023-04-15T04:27:54;28.40;99.90
56322;DHT22;42227;6.376;-10.782;2023-04-15T04:30:22;28.50;99.90
56322;DHT22;42227;6.376;-10.782;2023-04-15T04:32:50;28.50;99.90
56322;DHT22;42227;6.376;-10.782;2023-04-15T04:35:18;28.50;99.90
56322;DHT22;42227;6.376;-10.782;2023-04-15T04:37:47;28.40;99.90
56322;DHT22;42227;6.376;-10.782;2023-04-15T04:40:15;28.30;99.90
56322;DHT22;42227;6.376;-10.782;2023-04-15T04:42:43;28.30;99.90
56322;DHT22;42227;6.376;-10.782;2023-04-15T04:45:12;28.30;99.90
56322;DHT22;42227;6.376;-10.782;2023-04-15T04:47:40;28.10;99.90
56322;DHT22;42227;6.376;-10.782;2023-04-15T04:50:08;28.10;99.90
56322;DHT22;42227;6.376;-10.782;2023-04-15T04:52:37;27.90;99.90
56322;DHT22;42227;6.376;-10.782;2023-04-15T04:55:05;27.80;99.90
56322;DHT22;42227;6.376;-10.782;2023-04-15T04:57:33;27.90;99.90
56322;DHT22;42227;6.376;-10.782;2023-04-15T05:00:02;27.90;99.90
56322;DHT22;42227;6.376;-10.782;2023-04-15T05:02:31;28.20;99.90
56322;DHT22;42227;6.376;-10.782;2023-04-15T05:04:59;28.30;99.90
56322;DHT22;42227;6.376;-10.782;2023-04-15T05:07:28;28.30;99.90
56322;DHT22;42227;6.376;-10.782;2023-04-15T05:09:56;28.10;99.90
56322;DHT22;42227;6.376;-10.782;2023-04-15T05:12:24;28.10;99.90
56322;DHT22;42227;6.376;-10.782;2023-04-15T05:14:52;28.10;99.90
56322;DHT22;42227;6.376;-10.782;2023-04-15T05:17:20;28.10;99.90
56322;DHT22;42227;6.376;-10.782;2023-04-15T05:19:49;28.00;99.90
56322;DHT22;42227;6.376;-10.782;2023-04-15T05:22:17;28.20;99.90
56322;DHT22;42227;6.376;-10.782;2023-04-15T05:24:45;28.30;99.90
56322;DHT22;42227;6.376;-10.782;2023-04-15T05:27:13;28.20;99.90
56322;DHT22;42227;6.376;-10.782;2023-04-15T05:29:42;28.10;99.90
56322;DHT22;42227;6.376;-10.782;2023-04-15T05:32:10;28.10;99.90
56322;DHT22;42227;6.376;-10.782;2023-04-15T05:34:38;27.90;99.90
56322;DHT22;42227;6.376;-10.782;2023-04-15T05:37:06;27.80;99.90
56322;DHT22;42227;6.376;-10.782;2023-04-15T05:39:34;27.70;99.90
56322;DHT22;42227;6.376;-10.782;2023-04-15T05:42:03;27.60;99.90
56322;DHT22;42227;6.376;-10.782;2023-04-15T05:44:31;27.70;99.90
56322;DHT22;42227;6.376;-10.782;2023-04-15T05:46:59;27.70;99.90
56322;DHT22;42227;6.376;-10.782;2023-04-15T05:49:28;27.70;99.90
56322;DHT22;42227;6.376;-10.782;2023-04-15T05:51:56;27.70;99.90
56322;DHT22;42227;6.376;-10.782;2023-04-15T05:54:24;27.90;99.90
56322;DHT22;42227;6.376;-10.782;2023-04-15T05:56:53;27.70;99.90
56322;DHT22;42227;6.376;-10.782;2023-04-15T05:59:21;27.50;99.90
56322;DHT22;42227;6.376;-10.782;2023-04-15T06:01:49;27.40;99.90
56322;DHT22;42227;6.376;-10.782;2023-04-15T06:04:17;27.30;99.90
56322;DHT22;42227;6.376;-10.782;2023-04-15T06:06:46;27.40;99.90
56322;DHT22;42227;6.376;-10.782;2023-04-15T06:09:14;27.60;99.90
56322;DHT22;42227;6.376;-10.782;2023-04-15T06:11:42;27.60;99.90
56322;DHT22;42227;6.376;-10.782;2023-04-15T06:14:10;27.90;99.90
56322;DHT22;42227;6.376;-10.782;2023-04-15T06:16:39;27.80;99.90
56322;DHT22;42227;6.376;-10.782;2023-04-15T06:19:07;27.70;99.90
56322;DHT22;42227;6.376;-10.782;2023-04-15T06:21:36;27.70;99.90
56322;DHT22;42227;6.376;-10.782;2023-04-15T06:24:05;27.80;99.90
56322;DHT22;42227;6.376;-10.782;2023-04-15T06:26:33;27.90;99.90
56322;DHT22;42227;6.376;-10.782;2023-04-15T06:29:01;28.00;99.90
56322;DHT22;42227;6.376;-10.782;2023-04-15T06:31:30;28.00;99.90
56322;DHT22;42227;6.376;-10.782;2023-04-15T06:33:58;27.80;99.90
56322;DHT22;42227;6.376;-10.782;2023-04-15T06:36:26;27.80;99.90
56322;DHT22;42227;6.376;-10.782;2023-04-15T06:38:54;27.70;99.90
56322;DHT22;42227;6.376;-10.782;2023-04-15T06:41:23;27.70;99.90
56322;DHT22;42227;6.376;-10.782;2023-04-15T06:43:51;27.70;99.90
56322;DHT22;42227;6.376;-10.782;2023-04-15T06:46:19;27.80;99.90
56322;DHT22;42227;6.376;-10.782;2023-04-15T06:48:48;27.60;99.90
56322;DHT22;42227;6.376;-10.782;2023-04-15T06:51:16;27.50;99.90
56322;DHT22;42227;6.376;-10.782;2023-04-15T06:53:44;27.50;99.90
56322;DHT22;42227;6.376;-10.782;2023-04-15T06:56:12;27.60;99.90
56322;DHT22;42227;6.376;-10.782;2023-04-15T06:58:41;27.60;99.90
56322;DHT22;42227;6.376;-10.782;2023-04-15T07:01:09;27.80;99.90
56322;DHT22;42227;6.376;-10.782;2023-04-15T07:03:37;27.90;99.90
56322;DHT22;42227;6.376;-10.782;2023-04-15T07:06:05;27.90;99.90
56322;DHT22;42227;6.376;-10.782;2023-04-15T07:08:34;27.90;99.90
56322;DHT22;42227;6.376;-10.782;2023-04-15T07:11:02;27.90;99.90
56322;DHT22;42227;6.376;-10.782;2023-04-15T07:13:31;28.00;99.90
56322;DHT22;42227;6.376;-10.782;2023-04-15T07:15:59;28.00;99.90
56322;DHT22;42227;6.376;-10.782;2023-04-15T07:18:27;28.30;99.90
56322;DHT22;42227;6.376;-10.782;2023-04-15T07:20:55;28.70;99.90
56322;DHT22;42227;6.376;-10.782;2023-04-15T07:23:24;29.00;99.90
56322;DHT22;42227;6.376;-10.782;2023-04-15T07:25:52;29.10;99.90
56322;DHT22;42227;6.376;-10.782;2023-04-15T07:28:20;29.20;99.90
56322;DHT22;42227;6.376;-10.782;2023-04-15T07:30:48;29.50;99.90
56322;DHT22;42227;6.376;-10.782;2023-04-15T07:33:17;29.80;99.90
56322;DHT22;42227;6.376;-10.782;2023-04-15T07:35:45;29.80;99.90
56322;DHT22;42227;6.376;-10.782;2023-04-15T07:38:13;30.10;99.90
56322;DHT22;42227;6.376;-10.782;2023-04-15T07:40:42;30.40;99.90
56322;DHT22;42227;6.376;-10.782;2023-04-15T07:43:10;30.60;99.90
56322;DHT22;42227;6.376;-10.782;2023-04-15T07:45:38;30.50;99.90
56322;DHT22;42227;6.376;-10.782;2023-04-15T07:48:07;31.10;99.90
56322;DHT22;42227;6.376;-10.782;2023-04-15T07:50:35;32.00;99.90
56322;DHT22;42227;6.376;-10.782;2023-04-15T07:53:03;32.40;99.90
56322;DHT22;42227;6.376;-10.782;2023-04-15T07:55:31;32.80;99.90
56322;DHT22;42227;6.376;-10.782;2023-04-15T07:58:00;33.00;99.90
56322;DHT22;42227;6.376;-10.782;2023-04-15T08:00:28;34.20;99.90
56322;DHT22;42227;6.376;-10.782;2023-04-15T08:02:56;34.80;99.90
56322;DHT22;42227;6.376;-10.782;2023-04-15T08:05:24;35.40;99.90
56322;DHT22;42227;6.376;-10.782;2023-04-15T08:07:53;34.70;99.90
56322;DHT22;42227;6.376;-10.782;2023-04-15T08:10:21;35.90;99.90
56322;DHT22;42227;6.376;-10.782;2023-04-15T08:12:49;36.60;99.40
56322;DHT22;42227;6.376;-10.782;2023-04-15T08:15:18;36.50;99.90
56322;DHT22;42227;6.376;-10.782;2023-04-15T08:17:46;37.20;98.50
56322;DHT22;42227;6.376;-10.782;2023-04-15T08:20:15;37.60;97.70
56322;DHT22;42227;6.376;-10.782;2023-04-15T08:22:43;37.50;97.60
56322;DHT22;42227;6.376;-10.782;2023-04-15T08:25:11;37.60;97.60
56322;DHT22;42227;6.376;-10.782;2023-04-15T08:27:40;38.20;96.70
56322;DHT22;42227;6.376;-10.782;2023-04-15T08:30:08;37.50;96.60
56322;DHT22;42227;6.376;-10.782;2023-04-15T08:32:36;37.50;97.90
56322;DHT22;42227;6.376;-10.782;2023-04-15T08:35:05;38.70;96.10
56322;DHT22;42227;6.376;-10.782;2023-04-15T08:37:34;38.90;95.50
56322;DHT22;42227;6.376;-10.782;2023-04-15T08:40:02;39.30;94.90
56322;DHT22;42227;6.376;-10.782;2023-04-15T08:42:33;39.30;93.70
56322;DHT22;42227;6.376;-10.782;2023-04-15T08:45:04;38.90;94.50
56322;DHT22;42227;6.376;-10.782;2023-04-15T08:47:32;38.10;95.10
56322;DHT22;42227;6.376;-10.782;2023-04-15T08:50:03;38.40;95.70
56322;DHT22;42227;6.376;-10.782;2023-04-15T08:52:31;39.10;93.50
56322;DHT22;42227;6.376;-10.782;2023-04-15T08:55:01;38.40;94.90
56322;DHT22;42227;6.376;-10.782;2023-04-15T08:57:30;39.50;93.80
56322;DHT22;42227;6.376;-10.782;2023-04-15T09:00:01;41.00;92.20
56322;DHT22;42227;6.376;-10.782;2023-04-15T09:02:32;40.60;91.40
56322;DHT22;42227;6.376;-10.782;2023-04-15T09:05:00;39.20;93.10
56322;DHT22;42227;6.376;-10.782;2023-04-15T09:07:29;39.90;93.00
56322;DHT22;42227;6.376;-10.782;2023-04-15T09:09:57;41.10;90.70
56322;DHT22;42227;6.376;-10.782;2023-04-15T09:12:25;40.40;92.30
56322;DHT22;42227;6.376;-10.782;2023-04-15T09:14:53;41.10;91.30
56322;DHT22;42227;6.376;-10.782;2023-04-15T09:17:22;40.50;91.10
56322;DHT22;42227;6.376;-10.782;2023-04-15T09:20:07;39.50;91.70
56322;DHT22;42227;6.376;-10.782;2023-04-15T09:22:36;36.90;96.50
56322;DHT22;42227;6.376;-10.782;2023-04-15T09:25:24;35.00;99.70
56322;DHT22;42227;6.376;-10.782;2023-04-15T09:27:55;34.40;99.90
56322;DHT22;42227;6.376;-10.782;2023-04-15T09:30:23;33.90;99.90
56322;DHT22;42227;6.376;-10.782;2023-04-15T09:32:53;33.90;99.90
56322;DHT22;42227;6.376;-10.782;2023-04-15T09:35:23;33.40;99.90
56322;DHT22;42227;6.376;-10.782;2023-04-15T09:37:52;33.00;99.90
56322;DHT22;42227;6.376;-10.782;2023-04-15T09:40:38;33.00;99.90
56322;DHT22;42227;6.376;-10.782;2023-04-15T09:43:08;34.00;99.90
56322;DHT22;42227;6.376;-10.782;2023-04-15T09:45:37;34.00;99.90
56322;DHT22;42227;6.376;-10.782;2023-04-15T09:48:17;33.60;99.90
56322;DHT22;42227;6.376;-10.782;2023-04-15T09:50:47;32.80;99.90
56322;DHT22;42227;6.376;-10.782;2023-04-15T09:53:17;32.80;99.90
56322;DHT22;42227;6.376;-10.782;2023-04-15T09:58:29;32.80;99.90
56322;DHT22;42227;6.376;-10.782;2023-04-15T10:00:58;32.90;99.90
56322;DHT22;42227;6.376;-10.782;2023-04-15T10:03:29;33.20;99.90
56322;DHT22;42227;6.376;-10.782;2023-04-15T10:05:59;32.90;99.90
56322;DHT22;42227;6.376;-10.782;2023-04-15T10:08:33;32.70;99.90
56322;DHT22;42227;6.376;-10.782;2023-04-15T10:11:01;32.90;99.90
56322;DHT22;42227;6.376;-10.782;2023-04-15T10:13:31;32.70;99.90
56322;DHT22;42227;6.376;-10.782;2023-04-15T10:16:15;32.50;99.90
56322;DHT22;42227;6.376;-10.782;2023-04-15T10:18:45;32.10;99.90
56322;DHT22;42227;6.376;-10.782;2023-04-15T10:21:13;32.20;99.90
56322;DHT22;42227;6.376;-10.782;2023-04-15T10:23:43;32.40;99.90
56322;DHT22;42227;6.376;-10.782;2023-04-15T10:26:12;32.90;99.90
56322;DHT22;42227;6.376;-10.782;2023-04-15T10:28:41;33.60;99.90
56322;DHT22;42227;6.376;-10.782;2023-04-15T10:31:11;34.00;99.90
56322;DHT22;42227;6.376;-10.782;2023-04-15T10:33:42;34.50;99.90
56322;DHT22;42227;6.376;-10.782;2023-04-15T10:36:11;34.30;99.90
56322;DHT22;42227;6.376;-10.782;2023-04-15T10:38:43;34.40;99.90
56322;DHT22;42227;6.376;-10.782;2023-04-15T10:44:03;33.90;99.90
56322;DHT22;42227;6.376;-10.782;2023-04-15T10:46:39;33.20;99.90
56322;DHT22;42227;6.376;-10.782;2023-04-15T10:51:46;33.60;99.90
56322;DHT22;42227;6.376;-10.782;2023-04-15T10:54:16;33.90;99.90
56322;DHT22;42227;6.376;-10.782;2023-04-15T10:59:32;32.80;99.90
56322;DHT22;42227;6.376;-10.782;2023-04-15T11:02:06;32.60;99.90
56322;DHT22;42227;6.376;-10.782;2023-04-15T11:04:55;32.70;99.90
56322;DHT22;42227;6.376;-10.782;2023-04-15T11:12:46;33.30;99.90
56322;DHT22;42227;6.376;-10.782;2023-04-15T11:18:10;32.80;99.90
56322;DHT22;42227;6.376;-10.782;2023-04-15T11:20:44;32.50;99.90
56322;DHT22;42227;6.376;-10.782;2023-04-15T11:26:03;32.90;99.90
56322;DHT22;42227;6.376;-10.782;2023-04-15T11:28:32;33.60;99.90
56322;DHT22;42227;6.376;-10.782;2023-04-15T11:31:09;33.80;99.90
56322;DHT22;42227;6.376;-10.782;2023-04-15T11:33:54;34.00;99.90
56322;DHT22;42227;6.376;-10.782;2023-04-15T11:36:28;34.00;99.90
56322;DHT22;42227;6.376;-10.782;2023-04-15T11:38:58;34.40;99.90
56322;DHT22;42227;6.376;-10.782;2023-04-15T11:41:26;34.40;99.90
56322;DHT22;42227;6.376;-10.782;2023-04-15T11:43:54;33.80;99.90
56322;DHT22;42227;6.376;-10.782;2023-04-15T11:46:29;33.40;99.90
56322;DHT22;42227;6.376;-10.782;2023-04-15T11:48:57;33.50;99.90
56322;DHT22;42227;6.376;-10.782;2023-04-15T11:51:25;33.20;99.90
56322;DHT22;42227;6.376;-10.782;2023-04-15T11:53:58;33.00;99.90
56322;DHT22;42227;6.376;-10.782;2023-04-15T11:56:27;32.40;99.90
56322;DHT22;42227;6.376;-10.782;2023-04-15T11:58:56;32.20;99.90
56322;DHT22;42227;6.376;-10.782;2023-04-15T12:03:59;32.10;99.90
56322;DHT22;42227;6.376;-10.782;2023-04-15T12:06:32;32.00;99.90
56322;DHT22;42227;6.376;-10.782;2023-04-15T12:09:16;32.20;99.90
56322;DHT22;42227;6.376;-10.782;2023-04-15T12:11:47;32.80;99.90
56322;DHT22;42227;6.376;-10.782;2023-04-15T12:16:53;33.60;99.90
56322;DHT22;42227;6.376;-10.782;2023-04-15T12:19:28;34.10;99.90
56322;DHT22;42227;6.376;-10.782;2023-04-15T12:22:02;33.50;99.90
56322;DHT22;42227;6.376;-10.782;2023-04-15T12:24:33;33.50;99.90
56322;DHT22;42227;6.376;-10.782;2023-04-15T12:27:04;33.20;99.90
56322;DHT22;42227;6.376;-10.782;2023-04-15T12:29:34;33.20;99.90
56322;DHT22;42227;6.376;-10.782;2023-04-15T12:32:07;33.60;99.90
56322;DHT22;42227;6.376;-10.782;2023-04-15T12:34:48;33.70;99.90
56322;DHT22;42227;6.376;-10.782;2023-04-15T12:37:17;34.00;99.90
56322;DHT22;42227;6.376;-10.782;2023-04-15T12:39:48;33.60;99.90
56322;DHT22;42227;6.376;-10.782;2023-04-15T12:42:17;33.70;99.90
56322;DHT22;42227;6.376;-10.782;2023-04-15T12:44:45;33.90;99.90
56322;DHT22;42227;6.376;-10.782;2023-04-15T12:47:14;34.00;99.90
56322;DHT22;42227;6.376;-10.782;2023-04-15T12:49:42;33.80;99.90
56322;DHT22;42227;6.376;-10.782;2023-04-15T12:52:10;33.60;99.90
56322;DHT22;42227;6.376;-10.782;2023-04-15T12:54:39;33.70;99.90
56322;DHT22;42227;6.376;-10.782;2023-04-15T12:57:07;33.80;99.90
56322;DHT22;42227;6.376;-10.782;2023-04-15T12:59:35;33.60;99.90
56322;DHT22;42227;6.376;-10.782;2023-04-15T13:02:03;33.50;99.90
56322;DHT22;42227;6.376;-10.782;2023-04-15T13:04:32;33.50;99.90
56322;DHT22;42227;6.376;-10.782;2023-04-15T13:07:01;33.70;99.90
56322;DHT22;42227;6.376;-10.782;2023-04-15T13:09:29;34.00;99.90
56322;DHT22;42227;6.376;-10.782;2023-04-15T13:11:59;34.20;99.90
56322;DHT22;42227;6.376;-10.782;2023-04-15T13:14:28;34.00;99.90
56322;DHT22;42227;6.376;-10.782;2023-04-15T13:16:56;33.70;99.90
56322;DHT22;42227;6.376;-10.782;2023-04-15T13:19:24;33.60;99.90
56322;DHT22;42227;6.376;-10.782;2023-04-15T13:21:52;33.70;99.90
56322;DHT22;42227;6.376;-10.782;2023-04-15T13:24:21;33.90;99.90
56322;DHT22;42227;6.376;-10.782;2023-04-15T13:26:49;33.70;99.90
56322;DHT22;42227;6.376;-10.782;2023-04-15T13:29:17;33.60;99.90
56322;DHT22;42227;6.376;-10.782;2023-04-15T13:31:46;33.40;99.90
56322;DHT22;42227;6.376;-10.782;2023-04-15T13:34:14;33.60;99.90
56322;DHT22;42227;6.376;-10.782;2023-04-15T13:36:42;33.60;99.90
56322;DHT22;42227;6.376;-10.782;2023-04-15T13:39:10;33.50;99.90
56322;DHT22;42227;6.376;-10.782;2023-04-15T13:41:39;33.10;99.90
56322;DHT22;42227;6.376;-10.782;2023-04-15T13:44:07;33.30;99.90
56322;DHT22;42227;6.376;-10.782;2023-04-15T13:46:35;33.50;99.90
56322;DHT22;42227;6.376;-10.782;2023-04-15T13:49:04;33.30;99.90
56322;DHT22;42227;6.376;-10.782;2023-04-15T13:51:32;33.50;99.90
56322;DHT22;42227;6.376;-10.782;2023-04-15T13:54:00;33.60;99.90
56322;DHT22;42227;6.376;-10.782;2023-04-15T13:56:29;33.70;99.90
56322;DHT22;42227;6.376;-10.782;2023-04-15T13:58:59;33.70;99.90
56322;DHT22;42227;6.376;-10.782;2023-04-15T14:01:28;33.80;99.90
56322;DHT22;42227;6.376;-10.782;2023-04-15T14:03:56;33.70;99.90
56322;DHT22;42227;6.376;-10.782;2023-04-15T14:06:24;33.60;99.90
56322;DHT22;42227;6.376;-10.782;2023-04-15T14:08:54;33.70;99.90
56322;DHT22;42227;6.376;-10.782;2023-04-15T14:11:22;33.70;99.90
56322;DHT22;42227;6.376;-10.782;2023-04-15T14:13:50;33.60;99.90
56322;DHT22;42227;6.376;-10.782;2023-04-15T14:16:18;33.50;99.90
56322;DHT22;42227;6.376;-10.782;2023-04-15T14:18:46;33.70;99.90
56322;DHT22;42227;6.376;-10.782;2023-04-15T14:21:15;33.80;99.90
56322;DHT22;42227;6.376;-10.782;2023-04-15T14:23:43;33.60;99.90
56322;DHT22;42227;6.376;-10.782;2023-04-15T14:26:11;33.30;99.90
56322;DHT22;42227;6.376;-10.782;2023-04-15T14:28:39;33.10;99.90
56322;DHT22;42227;6.376;-10.782;2023-04-15T14:31:08;33.10;99.90
56322;DHT22;42227;6.376;-10.782;2023-04-15T14:33:36;33.40;99.90
56322;DHT22;42227;6.376;-10.782;2023-04-15T14:36:05;33.40;99.90
56322;DHT22;42227;6.376;-10.782;2023-04-15T14:38:34;33.70;99.90
56322;DHT22;42227;6.376;-10.782;2023-04-15T14:41:06;33.60;99.90
56322;DHT22;42227;6.376;-10.782;2023-04-15T14:43:35;33.60;99.90
56322;DHT22;42227;6.376;-10.782;2023-04-15T14:46:03;33.50;99.90
56322;DHT22;42227;6.376;-10.782;2023-04-15T14:48:31;33.60;99.90
56322;DHT22;42227;6.376;-10.782;2023-04-15T14:51:00;33.70;99.90
56322;DHT22;42227;6.376;-10.782;2023-04-15T14:53:28;33.60;99.90
56322;DHT22;42227;6.376;-10.782;2023-04-15T14:55:56;33.90;99.90
56322;DHT22;42227;6.376;-10.782;2023-04-15T14:58:25;34.00;99.90
56322;DHT22;42227;6.376;-10.782;2023-04-15T15:00:53;33.90;99.90
56322;DHT22;42227;6.376;-10.782;2023-04-15T15:03:22;33.70;99.90
56322;DHT22;42227;6.376;-10.782;2023-04-15T15:05:50;33.30;99.90
56322;DHT22;42227;6.376;-10.782;2023-04-15T15:08:19;33.10;99.90
56322;DHT22;42227;6.376;-10.782;2023-04-15T15:10:47;33.10;99.90
56322;DHT22;42227;6.376;-10.782;2023-04-15T15:13:16;33.10;99.90
56322;DHT22;42227;6.376;-10.782;2023-04-15T15:15:45;33.10;99.90
56322;DHT22;42227;6.376;-10.782;2023-04-15T15:18:14;33.10;99.90
56322;DHT22;42227;6.376;-10.782;2023-04-15T15:20:42;32.70;99.90
56322;DHT22;42227;6.376;-10.782;2023-04-15T15:23:12;32.50;99.90
56322;DHT22;42227;6.376;-10.782;2023-04-15T15:25:41;32.60;99.90
56322;DHT22;42227;6.376;-10.782;2023-04-15T15:28:10;32.40;99.90
56322;DHT22;42227;6.376;-10.782;2023-04-15T15:30:39;32.20;99.90
56322;DHT22;42227;6.376;-10.782;2023-04-15T15:33:07;32.40;99.90
56322;DHT22;42227;6.376;-10.782;2023-04-15T15:35:35;32.70;99.90
56322;DHT22;42227;6.376;-10.782;2023-04-15T15:38:03;32.90;99.90
56322;DHT22;42227;6.376;-10.782;2023-04-15T15:40:31;33.00;99.90
56322;DHT22;42227;6.376;-10.782;2023-04-15T15:43:00;33.10;99.90
56322;DHT22;42227;6.376;-10.782;2023-04-15T15:45:28;33.30;99.90
56322;DHT22;42227;6.376;-10.782;2023-04-15T15:47:57;33.30;99.90
56322;DHT22;42227;6.376;-10.782;2023-04-15T15:50:25;33.20;99.90
56322;DHT22;42227;6.376;-10.782;2023-04-15T15:53:00;33.20;99.90
56322;DHT22;42227;6.376;-10.782;2023-04-15T15:55:33;33.00;99.90